Time;durP1;ratioP1;P1;durP2;ratioP2;P2;SDS_P1;SDS_P2;PMS_P1;PMS_P2;Temp;Humidity;BMP_temperature;BMP_pressure;BME280_temperature;BME280_humidity;BME280_pressure;Samples;Min_cycle;Max_cycle;Signal;HPM_P1;HPM_P2
2022/04/26 03:37:12;;;;;;;6.35;5.15;;;19.20;63.00;;;;;;5125901;27;45161;-84
2022/04/26 03:39:39;;;;;;;6.50;5.60;;;19.20;63.00;;;;;;5129147;27;45242;-83
2022/04/26 03:42:06;;;;;;;8.35;5.57;;;19.20;63.10;;;;;;5126894;27;47423;-84
2022/04/26 03:44:33;;;;;;;7.20;5.80;;;19.20;63.30;;;;;;5130020;27;45224;-84
2022/04/26 03:47:00;;;;;;;7.80;5.55;;;19.20;63.30;;;;;;5127318;27;45329;-84
2022/04/26 03:49:29;;;;;;;7.40;5.80;;;19.20;63.50;;;;;;5128447;27;46429;-84
2022/04/26 03:51:55;;;;;;;6.70;5.40;;;19.20;63.50;;;;;;5121730;27;46024;-84
2022/04/26 03:54:23;;;;;;;7.25;5.63;;;19.20;63.50;;;;;;5124466;27;45178;-84
2022/04/26 03:56:50;;;;;;;6.60;5.32;;;19.20;63.50;;;;;;5130272;27;45423;-85
2022/04/26 03:59:18;;;;;;;8.38;5.35;;;19.20;63.40;;;;;;5130370;27;45395;-84
2022/04/26 04:01:46;;;;;;;7.75;5.75;;;19.20;63.30;;;;;;5125592;27;46267;-84
2022/04/26 04:04:13;;;;;;;6.07;5.07;;;19.20;63.20;;;;;;5130376;27;45260;-84
2022/04/26 04:06:41;;;;;;;7.28;5.60;;;19.20;63.20;;;;;;5127860;27;45324;-85
2022/04/26 04:09:08;;;;;;;7.22;4.90;;;19.20;63.10;;;;;;5108562;27;45371;-84
2022/04/26 04:11:35;;;;;;;8.52;4.90;;;19.20;63.10;;;;;;5122090;27;47880;-84
2022/04/26 04:14:02;;;;;;;6.45;5.20;;;19.20;63.10;;;;;;5121830;27;45186;-84
2022/04/26 04:16:29;;;;;;;6.07;4.82;;;19.20;63.10;;;;;;5130239;27;45278;-84
2022/04/26 04:21:41;;;;;;;6.40;5.00;;;19.20;63.00;;;;;;5121282;27;45253;-84
2022/04/26 04:24:08;;;;;;;6.22;4.93;;;19.20;62.90;;;;;;5128615;27;45261;-85
2022/04/26 04:26:35;;;;;;;6.30;4.80;;;19.20;63.90;;;;;;5124769;27;45226;-84
2022/04/26 04:29:03;;;;;;;6.80;5.35;;;19.20;62.90;;;;;;5125913;27;45227;-84
2022/04/26 04:31:29;;;;;;;7.78;5.85;;;19.20;63.00;;;;;;5128098;27;45812;-85
2022/04/26 04:33:56;;;;;;;7.50;5.50;;;19.20;62.90;;;;;;5129628;27;45282;-85
2022/04/26 04:36:23;;;;;;;7.13;5.10;;;19.20;63.00;;;;;;5127690;27;45238;-84
2022/04/26 04:38:51;;;;;;;7.55;4.97;;;19.10;62.90;;;;;;5126635;27;45302;-85
2022/04/26 04:41:18;;;;;;;6.40;4.80;;;19.20;62.90;;;;;;5128749;27;47010;-84
2022/04/26 04:43:45;;;;;;;7.53;5.25;;;19.20;62.80;;;;;;5128530;27;45385;-84
2022/04/26 04:46:12;;;;;;;6.43;4.88;;;19.10;62.80;;;;;;5121472;27;45375;-84
2022/04/26 04:48:39;;;;;;;6.47;4.80;;;19.20;62.80;;;;;;5128814;27;45251;-84
2022/04/26 04:51:07;;;;;;;5.82;4.32;;;19.10;62.60;;;;;;5128010;27;46963;-85
2022/04/26 04:53:34;;;;;;;5.60;3.90;;;19.10;62.60;;;;;;5128565;27;45201;-84
2022/04/26 04:56:02;;;;;;;5.97;4.22;;;19.10;62.60;;;;;;5127686;27;46252;-84
2022/04/26 04:58:29;;;;;;;5.57;3.67;;;19.10;62.60;;;;;;5128477;27;45314;-84
2022/04/26 05:00:56;;;;;;;5.30;3.80;;;19.10;62.60;;;;;;5127382;27;47267;-84
2022/04/26 05:03:23;;;;;;;5.35;3.80;;;19.10;62.50;;;;;;5128386;27;45153;-84
2022/04/26 05:05:50;;;;;;;4.63;3.35;;;19.10;62.50;;;;;;5122892;27;46815;-84
2022/04/26 05:08:16;;;;;;;4.47;3.42;;;19.20;62.60;;;;;;5127406;27;45362;-84
2022/04/26 05:10:43;;;;;;;4.65;3.20;;;19.20;62.40;;;;;;5127399;27;47936;-84
2022/04/26 05:13:11;;;;;;;4.63;3.05;;;19.20;62.40;;;;;;5127066;27;45101;-84
2022/04/26 05:15:38;;;;;;;4.22;3.30;;;19.20;63.30;;;;;;5129690;27;45225;-84
2022/04/26 05:18:06;;;;;;;4.05;3.10;;;19.20;62.10;;;;;;5125915;27;45258;-84
2022/04/26 05:20:33;;;;;;;3.58;2.80;;;19.20;62.10;;;;;;5125323;27;45753;-84
2022/04/26 05:25:45;;;;;;;2.67;2.38;;;19.20;62.00;;;;;;5127586;27;45272;-85
2022/04/26 05:28:13;;;;;;;3.95;2.80;;;19.10;61.80;;;;;;5128977;27;45514;-84
2022/04/26 05:30:40;;;;;;;5.13;2.83;;;19.10;61.90;;;;;;5123191;27;47351;-85
2022/04/26 05:33:07;;;;;;;3.53;2.67;;;19.10;61.90;;;;;;5124242;27;45432;-85
2022/04/26 05:35:34;;;;;;;2.97;2.47;;;19.10;61.70;;;;;;5121499;27;45545;-85
2022/04/26 05:38:01;;;;;;;3.55;2.40;;;19.10;61.80;;;;;;5127950;27;45370;-85
2022/04/26 05:40:27;;;;;;;3.58;2.70;;;19.10;61.70;;;;;;5119216;27;46215;-85
2022/04/26 05:42:54;;;;;;;3.08;2.25;;;19.10;61.70;;;;;;5122805;27;45322;-85
2022/04/26 05:45:25;;;;;;;4.38;2.38;;;19.10;61.70;;;;;;5127363;27;45479;-85
2022/04/26 05:47:51;;;;;;;4.27;2.63;;;19.10;61.80;;;;;;5117728;27;45281;-84
2022/04/26 05:50:18;;;;;;;2.97;2.47;;;19.00;61.40;;;;;;5126209;27;46355;-84
2022/04/26 05:52:45;;;;;;;4.25;2.65;;;19.00;61.30;;;;;;5118173;27;45306;-83
2022/04/26 05:55:12;;;;;;;3.38;2.53;;;19.00;61.40;;;;;;5126759;27;46736;-83
2022/04/26 05:57:39;;;;;;;3.33;2.67;;;19.00;61.30;;;;;;5125008;27;45477;-83
2022/04/26 06:00:08;;;;;;;3.28;2.33;;;19.00;61.20;;;;;;5122982;27;45553;-84
2022/04/26 06:02:36;;;;;;;3.78;2.55;;;19.10;60.90;;;;;;5120137;27;45933;-83
2022/04/26 06:05:03;;;;;;;3.35;2.60;;;19.10;61.40;;;;;;5125828;27;45408;-84
2022/04/26 06:07:30;;;;;;;3.42;2.38;;;19.10;59.90;;;;;;5121682;27;45346;-85
2022/04/26 06:09:57;;;;;;;3.38;2.30;;;19.10;59.20;;;;;;5126483;27;47125;-85
2022/04/26 06:12:26;;;;;;;3.05;2.40;;;19.10;59.40;;;;;;5119483;27;45281;-83
2022/04/26 06:14:53;;;;;;;2.78;2.03;;;19.10;60.50;;;;;;5127264;27;45242;-84
2022/04/26 06:17:20;;;;;;;3.38;2.35;;;19.00;59.30;;;;;;5128210;27;45170;-83
2022/04/26 06:19:48;;;;;;;3.25;2.17;;;19.00;59.20;;;;;;5124916;27;45244;-84
2022/04/26 06:22:15;;;;;;;4.25;2.60;;;19.10;58.90;;;;;;5114310;27;45302;-84
2022/04/26 06:24:42;;;;;;;6.22;2.25;;;19.10;59.20;;;;;;5127288;27;45359;-81
2022/04/26 06:27:09;;;;;;;3.25;2.20;;;19.10;59.20;;;;;;5121054;27;45506;-85
2022/04/26 06:29:36;;;;;;;4.35;2.40;;;19.00;59.10;;;;;;5121157;27;46882;-85
2022/04/26 06:32:03;;;;;;;3.75;2.50;;;19.10;60.50;;;;;;5125441;27;45230;-86
2022/04/26 06:34:29;;;;;;;4.93;2.22;;;19.10;60.70;;;;;;5119107;27;45897;-86
2022/04/26 06:36:58;;;;;;;3.10;2.13;;;19.10;60.30;;;;;;5133682;27;46356;-86
2022/04/26 06:39:24;;;;;;;3.78;2.10;;;19.20;60.10;;;;;;5127929;27;46313;-85
2022/04/26 06:41:51;;;;;;;4.15;2.08;;;19.20;60.00;;;;;;5122899;27;45416;-84
2022/04/26 06:44:18;;;;;;;3.67;2.20;;;19.20;60.30;;;;;;5127013;27;45403;-85
2022/04/26 06:46:45;;;;;;;5.40;2.55;;;19.20;60.30;;;;;;5113494;27;45425;-85
2022/04/26 06:49:12;;;;;;;2.88;2.17;;;19.20;60.20;;;;;;5121180;27;46688;-84
2022/04/26 06:51:41;;;;;;;4.93;2.50;;;19.20;60.30;;;;;;5119782;27;45557;-85
2022/04/26 06:54:09;;;;;;;5.28;2.55;;;19.20;61.20;;;;;;5115632;27;45336;-85
2022/04/26 06:56:35;;;;;;;3.55;2.30;;;19.20;60.20;;;;;;5121371;27;45386;-85
2022/04/26 06:59:02;;;;;;;3.15;2.42;;;19.20;60.30;;;;;;5121970;27;47397;-85
2022/04/26 07:01:29;;;;;;;4.43;2.58;;;19.20;60.40;;;;;;5123828;27;46146;-85
2022/04/26 07:03:56;;;;;;;3.67;2.58;;;19.20;60.30;;;;;;5126621;27;45229;-84
2022/04/26 07:06:23;;;;;;;4.90;2.70;;;19.20;60.30;;;;;;5118401;27;45256;-86
2022/04/26 07:08:50;;;;;;;4.47;2.88;;;19.20;60.20;;;;;;5118623;27;47190;-85
2022/04/26 07:11:18;;;;;;;5.20;3.00;;;19.20;61.40;;;;;;5117653;27;45318;-85
2022/04/26 07:13:45;;;;;;;5.18;2.70;;;19.20;60.20;;;;;;5124277;27;45299;-85
2022/04/26 07:16:12;;;;;;;5.85;3.10;;;19.20;60.20;;;;;;5126024;27;46402;-84
2022/04/26 07:18:39;;;;;;;61.15;6.28;;;19.20;60.10;;;;;;5125675;27;45666;-84
2022/04/26 07:21:06;;;;;;;12.90;3.60;;;19.30;61.30;;;;;;5124306;27;45242;-85
2022/04/26 07:23:33;;;;;;;22.08;4.40;;;19.30;60.70;;;;;;5120654;27;45206;-85
2022/04/26 07:25:59;;;;;;;12.23;3.40;;;19.20;60.50;;;;;;5118061;27;45326;-85
2022/04/26 07:28:28;;;;;;;13.88;3.50;;;19.20;60.70;;;;;;5119358;27;47779;-85
2022/04/26 07:30:54;;;;;;;15.07;4.00;;;19.20;60.60;;;;;;5121867;27;45217;-85
2022/04/26 07:36:07;;;;;;;11.93;4.35;;;19.10;60.50;;;;;;5121116;27;45346;-85
2022/04/26 07:38:33;;;;;;;7.25;4.55;;;19.10;61.40;;;;;;5119684;27;46726;-84
2022/04/26 07:41:00;;;;;;;9.43;4.38;;;19.10;60.30;;;;;;5126866;27;45237;-84
2022/04/26 07:43:28;;;;;;;10.23;4.93;;;19.10;60.40;;;;;;5120426;27;45115;-84
2022/04/26 07:45:56;;;;;;;6.97;4.68;;;19.10;60.30;;;;;;5127399;27;45510;-84
2022/04/26 07:48:23;;;;;;;9.55;5.00;;;19.10;60.20;;;;;;5118659;27;45512;-84
2022/04/26 07:50:50;;;;;;;13.77;5.22;;;19.10;60.20;;;;;;5120856;27;45827;-84
2022/04/26 07:53:17;;;;;;;12.90;5.15;;;19.10;60.20;;;;;;5117864;27;45209;-84
2022/04/26 07:55:44;;;;;;;10.50;6.00;;;19.20;60.40;;;;;;5119444;27;45714;-83
2022/04/26 07:58:11;;;;;;;10.65;6.55;;;19.20;60.50;;;;;;5123757;27;46639;-84
2022/04/26 08:00:40;;;;;;;13.15;7.70;;;19.20;60.50;;;;;;5116334;27;45241;-84
2022/04/26 08:03:06;;;;;;;12.02;8.20;;;19.20;60.30;;;;;;5124118;27;45280;-85
2022/04/26 08:05:33;;;;;;;12.57;8.23;;;19.20;60.30;;;;;;5126785;27;45485;-84
2022/04/26 08:08:00;;;;;;;15.52;9.75;;;19.20;60.20;;;;;;5123879;27;47412;-84
2022/04/26 08:10:27;;;;;;;14.63;10.00;;;19.20;60.20;;;;;;5122860;27;45343;-84
2022/04/26 08:12:54;;;;;;;16.80;10.20;;;19.20;60.10;;;;;;5131941;27;45185;-84
2022/04/26 08:15:20;;;;;;;18.88;11.23;;;19.20;60.20;;;;;;5120540;27;45215;-85
2022/04/26 08:17:49;;;;;;;18.80;11.82;;;19.10;60.10;;;;;;5129594;27;46594;-84
2022/04/26 08:20:17;;;;;;;20.90;11.43;;;19.10;60.00;;;;;;5123983;27;45203;-84
2022/04/26 08:22:44;;;;;;;20.92;11.40;;;19.10;60.00;;;;;;5130907;27;45260;-85
2022/04/26 08:27:56;;;;;;;19.63;11.75;;;19.10;60.00;;;;;;5122995;27;45580;-85
2022/04/26 08:30:23;;;;;;;20.92;12.20;;;19.10;60.00;;;;;;5128409;27;45188;-85
2022/04/26 08:32:51;;;;;;;18.70;12.70;;;19.10;60.00;;;;;;5120633;27;45308;-85
2022/04/26 08:35:20;;;;;;;18.30;12.07;;;19.10;59.90;;;;;;5127693;27;45380;-85
2022/04/26 08:37:47;;;;;;;18.10;11.98;;;19.10;60.00;;;;;;5124295;27;48217;-85
2022/04/26 08:40:14;;;;;;;18.20;11.65;;;19.10;60.10;;;;;;5126045;27;46883;-85
2022/04/26 08:42:42;;;;;;;19.27;12.43;;;19.10;60.20;;;;;;5130654;27;45521;-85
2022/04/26 08:45:11;;;;;;;16.30;11.15;;;19.10;60.20;;;;;;5120311;27;45348;-85
2022/04/26 08:53:10;;;;;;;42.85;12.07;;;19.20;61.00;;;;;;5127781;27;45202;-83
2022/04/26 08:55:43;;;;;;;61.58;13.55;;;19.30;60.90;;;;;;5129958;27;45489;-85
2022/04/26 08:58:11;;;;;;;28.90;12.63;;;19.40;60.80;;;;;;5122756;27;45395;-84
2022/04/26 09:00:39;;;;;;;24.63;10.77;;;19.40;60.50;;;;;;5129659;27;45237;-83
2022/04/26 09:03:08;;;;;;;22.92;10.07;;;19.30;60.50;;;;;;5120922;27;45216;-84
2022/04/26 09:05:37;;;;;;;17.52;9.02;;;19.30;60.50;;;;;;5124846;27;45367;-85
2022/04/26 09:08:20;;;;;;;22.77;8.77;;;19.30;60.80;;;;;;5130156;27;45741;-85
2022/04/26 09:10:47;;;;;;;17.55;8.27;;;19.20;60.70;;;;;;5123845;27;45284;-84
2022/04/26 09:13:15;;;;;;;15.60;8.05;;;19.20;60.90;;;;;;5118161;27;45424;-83
2022/04/26 09:15:44;;;;;;;15.27;7.65;;;19.20;60.80;;;;;;5116792;27;45362;-86
2022/04/26 09:18:30;;;;;;;17.65;7.93;;;19.20;60.60;;;;;;5121482;27;45487;-84
2022/04/26 09:21:09;;;;;;;13.10;7.50;;;19.20;60.50;;;;;;5119971;27;46783;-85
2022/04/26 09:23:38;;;;;;;16.05;7.65;;;19.20;60.60;;;;;;5127131;27;45284;-86
2022/04/26 09:26:11;;;;;;;15.25;7.43;;;19.20;60.70;;;;;;5124638;27;45421;-83
2022/04/26 09:28:41;;;;;;;12.20;7.07;;;19.20;60.80;;;;;;5118317;27;47678;-83
2022/04/26 09:31:19;;;;;;;12.02;8.02;;;19.20;60.70;;;;;;5120586;27;45513;-85
2022/04/26 09:33:51;;;;;;;14.05;8.73;;;19.20;60.70;;;;;;5126975;27;45337;-84
2022/04/26 09:36:22;;;;;;;13.60;7.72;;;19.20;60.70;;;;;;5120789;27;45293;-84
2022/04/26 09:38:55;;;;;;;10.32;7.18;;;19.20;60.70;;;;;;5118183;27;47156;-84
2022/04/26 09:41:22;;;;;;;11.43;7.57;;;19.20;60.80;;;;;;5119207;27;45273;-84
2022/04/26 09:44:01;;;;;;;11.55;7.32;;;19.20;60.70;;;;;;5114327;27;45178;-84
2022/04/26 09:46:46;;;;;;;12.60;7.47;;;19.20;60.60;;;;;;5120612;27;46387;-83
2022/04/26 09:49:15;;;;;;;12.98;7.35;;;19.20;60.50;;;;;;5127055;27;47663;-85
2022/04/26 09:51:44;;;;;;;12.63;7.30;;;19.20;60.60;;;;;;5121566;27;45485;-86
2022/04/26 09:54:10;;;;;;;13.15;7.93;;;19.20;62.90;;;;;;5128001;27;45326;-85
2022/04/26 09:56:39;;;;;;;24.35;9.00;;;19.20;63.30;;;;;;5120334;27;45487;-84
2022/04/26 09:59:06;;;;;;;15.88;8.80;;;19.20;64.50;;;;;;5127878;27;48210;-85
2022/04/26 10:01:39;;;;;;;15.80;8.30;;;19.20;63.90;;;;;;5131762;27;46081;-85
2022/04/26 10:04:09;;;;;;;13.05;8.30;;;19.10;63.90;;;;;;5116323;27;45402;-86
2022/04/26 10:06:37;;;;;;;78.68;11.43;;;19.10;63.90;;;;;;5122176;27;45446;-85
2022/04/26 10:09:07;;;;;;;39.75;9.60;;;19.20;66.00;;;;;;5123089;27;47087;-82
2022/04/26 10:11:34;;;;;;;25.33;10.20;;;19.20;66.20;;;;;;5120050;27;45353;-82
2022/04/26 10:14:03;;;;;;;15.20;8.40;;;19.10;65.60;;;;;;5122121;27;45465;-82
2022/04/26 10:16:31;;;;;;;15.00;8.55;;;19.10;65.50;;;;;;5127848;27;45568;-82
2022/04/26 10:19:04;;;;;;;16.20;8.15;;;19.00;65.90;;;;;;5117609;27;48000;-82
2022/04/26 10:21:49;;;;;;;13.50;8.15;;;19.00;66.20;;;;;;5122647;27;45169;-81
2022/04/26 10:24:22;;;;;;;10.55;8.07;;;19.00;66.70;;;;;;5126963;27;45192;-81
2022/04/26 10:26:50;;;;;;;11.52;7.45;;;19.00;66.80;;;;;;5124709;27;45306;-82
2022/04/26 10:29:19;;;;;;;13.02;7.80;;;19.00;66.90;;;;;;5122501;27;46131;-82
2022/04/26 10:31:48;;;;;;;13.43;8.00;;;19.00;67.10;;;;;;5122821;27;45367;-81
2022/04/26 10:34:27;;;;;;;10.05;7.45;;;19.00;67.30;;;;;;5126445;27;45418;-81
2022/04/26 10:36:55;;;;;;;12.85;7.20;;;19.00;67.70;;;;;;5124021;27;45179;-81
2022/04/26 10:39:30;;;;;;;11.25;7.63;;;19.00;67.70;;;;;;5123210;27;46434;-81
2022/04/26 10:41:58;;;;;;;9.43;7.22;;;19.00;68.00;;;;;;5126677;27;45324;-81
2022/04/26 10:44:33;;;;;;;9.07;6.97;;;19.00;68.00;;;;;;5124063;27;45259;-81
2022/04/26 10:47:22;;;;;;;9.68;6.78;;;19.00;68.00;;;;;;5119881;27;45481;-81
2022/04/26 10:49:50;;;;;;;8.02;6.35;;;19.10;68.70;;;;;;5123115;27;46248;-81
2022/04/26 10:52:50;;;;;;;9.80;6.80;;;19.10;68.40;;;;;;5126196;27;45271;-81
2022/04/26 10:55:25;;;;;;;9.30;7.00;;;19.10;69.20;;;;;;5119936;27;45159;-81
2022/04/26 10:57:52;;;;;;;10.52;6.57;;;19.10;69.20;;;;;;5128627;27;45382;-82
2022/04/26 11:00:26;;;;;;;7.68;6.60;;;19.10;69.30;;;;;;5127261;27;46491;-83
2022/04/26 11:02:53;;;;;;;8.55;6.35;;;19.10;69.40;;;;;;5122921;27;45243;-81
2022/04/26 11:05:25;;;;;;;8.10;6.63;;;19.10;69.40;;;;;;5122093;27;45301;-81
2022/04/26 11:07:53;;;;;;;9.00;6.93;;;19.10;69.70;;;;;;5119564;27;45569;-81
2022/04/26 11:10:22;;;;;;;9.73;6.85;;;19.10;69.70;;;;;;5123205;27;46192;-81
2022/04/26 11:12:50;;;;;;;8.10;6.40;;;19.10;69.80;;;;;;5120712;27;45267;-81
2022/04/26 11:15:19;;;;;;;8.20;6.28;;;19.10;69.80;;;;;;5127860;27;45242;-81
2022/04/26 11:17:47;;;;;;;8.02;6.55;;;19.10;70.00;;;;;;5126056;27;45523;-81
2022/04/26 11:20:17;;;;;;;7.85;6.30;;;19.10;70.10;;;;;;5129762;27;46318;-80
2022/04/26 11:22:49;;;;;;;8.02;6.82;;;19.10;69.90;;;;;;5127713;27;45170;-81
2022/04/26 11:28:12;;;;;;;7.38;6.20;;;19.10;70.50;;;;;;5116572;27;45705;-82
2022/04/26 11:30:40;;;;;;;8.35;6.78;;;19.10;70.80;;;;;;5120649;27;46224;-81
2022/04/26 11:33:09;;;;;;;8.75;6.85;;;19.10;70.60;;;;;;5127504;27;45268;-81
2022/04/26 11:35:36;;;;;;;8.23;6.97;;;19.10;70.60;;;;;;5130511;27;45235;-81
2022/04/26 11:38:09;;;;;;;7.50;6.38;;;19.20;70.80;;;;;;5121634;27;45514;-81
2022/04/26 11:40:38;;;;;;;7.72;5.85;;;19.20;71.20;;;;;;5122614;27;46199;-81
2022/04/26 11:43:12;;;;;;;7.53;6.38;;;19.20;71.20;;;;;;5130249;27;45440;-81
2022/04/26 11:45:39;;;;;;;6.70;5.95;;;19.20;71.20;;;;;;5129391;27;45261;-81
2022/04/26 11:48:10;;;;;;;8.70;6.68;;;19.20;71.10;;;;;;5130589;27;45390;-81
2022/04/26 11:50:37;;;;;;;8.45;6.35;;;19.20;71.20;;;;;;5138736;27;45175;-81
2022/04/26 11:53:06;;;;;;;8.88;6.32;;;19.20;71.20;;;;;;5130446;27;45421;-81
2022/04/26 11:55:35;;;;;;;6.75;6.05;;;19.20;71.20;;;;;;5124892;27;45576;-81
2022/04/26 11:58:15;;;;;;;6.80;6.00;;;19.20;71.40;;;;;;5120636;27;45210;-81
2022/04/26 12:01:00;;;;;;;7.55;6.75;;;19.20;71.50;;;;;;5130032;27;47161;-81
2022/04/26 12:03:29;;;;;;;9.02;7.55;;;19.20;71.70;;;;;;5127831;27;45251;-82
2022/04/26 12:05:58;;;;;;;7.68;6.88;;;19.20;71.30;;;;;;5130191;27;45265;-82
2022/04/26 12:08:26;;;;;;;7.72;6.63;;;19.20;71.40;;;;;;5126811;27;45463;-82
2022/04/26 12:10:53;;;;;;;8.15;6.60;;;19.20;71.40;;;;;;5127054;27;45309;-81
2022/04/26 12:13:32;;;;;;;7.53;5.80;;;19.20;71.50;;;;;;5122876;27;45268;-82
2022/04/26 12:16:17;;;;;;;7.40;5.90;;;19.20;71.50;;;;;;5128981;27;45221;-82
2022/04/26 12:18:51;;;;;;;6.22;5.28;;;19.30;71.50;;;;;;5130063;27;45380;-81
2022/04/26 12:21:19;;;;;;;6.47;5.38;;;19.30;71.60;;;;;;5120519;27;46494;-82
2022/04/26 12:23:46;;;;;;;7.32;5.28;;;19.40;71.90;;;;;;5130570;27;45242;-82
2022/04/26 12:26:14;;;;;;;6.55;5.68;;;19.40;71.90;;;;;;5128940;27;45397;-82
2022/04/26 12:28:50;;;;;;;6.28;4.95;;;19.30;71.90;;;;;;5128222;27;45258;-82
2022/04/26 12:31:26;;;;;;;6.57;5.03;;;19.30;72.50;;;;;;5132018;27;45189;-82
2022/04/26 12:34:12;;;;;;;6.97;4.80;;;19.30;72.60;;;;;;5124995;27;45317;-82
2022/04/26 12:37:09;;;;;;;6.55;5.07;;;19.20;72.40;;;;;;5122977;27;45266;-82
2022/04/26 12:39:44;;;;;;;5.78;4.85;;;19.10;72.60;;;;;;5083687;27;45504;-82
2022/04/26 12:42:13;;;;;;;5.93;5.32;;;19.10;72.60;;;;;;5126183;27;46326;-82
2022/04/26 12:44:51;;;;;;;5.03;4.47;;;19.00;72.40;;;;;;5117766;27;45565;-82
2022/04/26 12:52:51;;;;;;;7.07;5.45;;;19.00;72.30;;;;;;5128365;27;45186;-82
2022/04/26 12:55:25;;;;;;;8.10;5.00;;;19.00;72.20;;;;;;5125672;27;45306;-82
2022/04/26 12:57:54;;;;;;;7.25;4.90;;;19.10;72.50;;;;;;5125469;27;45219;-83
2022/04/26 13:00:23;;;;;;;7.80;5.07;;;19.10;72.20;;;;;;5115273;27;45313;-82
2022/04/26 13:02:52;;;;;;;6.90;4.70;;;19.10;72.20;;;;;;5122961;27;46331;-86
2022/04/26 13:05:21;;;;;;;10.60;4.88;;;19.20;71.70;;;;;;5127128;27;45914;-82
2022/04/26 13:07:48;;;;;;;14.90;5.97;;;19.20;71.10;;;;;;5127084;27;45399;-79
2022/04/26 13:10:16;;;;;;;10.88;5.68;;;19.30;74.00;;;;;;5128741;27;45491;-81
2022/04/26 13:12:43;;;;;;;11.32;5.65;;;19.40;72.90;;;;;;5125739;27;46205;-81
2022/04/26 13:15:11;;;;;;;10.50;5.07;;;19.40;74.60;;;;;;5123979;27;45350;-81
2022/04/26 13:17:40;;;;;;;8.65;5.07;;;19.50;74.70;;;;;;5125737;27;45298;-81
2022/04/26 13:20:10;;;;;;;8.65;4.18;;;19.70;74.20;;;;;;5123011;27;45674;-80
2022/04/26 13:22:38;;;;;;;7.60;4.38;;;19.80;74.40;;;;;;5125232;27;45812;-80
2022/04/26 13:25:06;;;;;;;6.50;3.97;;;19.90;74.30;;;;;;5126880;27;45262;-80
2022/04/26 13:27:33;;;;;;;10.90;4.40;;;20.20;74.20;;;;;;5126072;27;45446;-80
2022/04/26 13:30:01;;;;;;;4.65;3.47;;;20.40;74.00;;;;;;5127706;27;45761;-80
2022/04/26 13:32:30;;;;;;;5.55;3.55;;;20.60;73.90;;;;;;5125531;27;46412;-81
2022/04/26 13:34:58;;;;;;;5.80;3.88;;;20.70;73.60;;;;;;5129816;27;45601;-80
2022/04/26 13:37:26;;;;;;;4.75;3.63;;;20.80;73.50;;;;;;5129597;27;45309;-80
2022/04/26 13:39:54;;;;;;;8.48;4.35;;;20.90;73.60;;;;;;5119933;27;45463;-80
2022/04/26 13:42:23;;;;;;;5.38;3.60;;;21.00;73.10;;;;;;5119983;27;46437;-80
2022/04/26 13:44:52;;;;;;;8.07;4.03;;;21.10;72.70;;;;;;5120809;27;45310;-80
2022/04/26 13:47:19;;;;;;;6.00;4.32;;;21.20;72.90;;;;;;5126331;27;45155;-80
2022/04/26 13:49:46;;;;;;;6.15;3.58;;;21.20;72.70;;;;;;5126703;27;45383;-80
2022/04/26 13:52:15;;;;;;;4.78;3.85;;;21.40;72.90;;;;;;5123924;27;45307;-80
2022/04/26 13:54:42;;;;;;;7.72;4.55;;;21.50;72.10;;;;;;5126769;27;45311;-80
2022/04/26 13:57:10;;;;;;;4.57;3.42;;;21.50;71.80;;;;;;5126857;27;45277;-80
2022/04/26 13:59:37;;;;;;;4.50;3.67;;;21.60;70.80;;;;;;5121180;27;45337;-80
2022/04/26 14:02:05;;;;;;;6.18;3.35;;;21.60;70.10;;;;;;5129113;27;46211;-80
2022/04/26 14:04:32;;;;;;;5.90;3.58;;;21.60;70.10;;;;;;5125107;27;45214;-82
2022/04/26 14:06:59;;;;;;;5.00;3.30;;;21.40;69.90;;;;;;5126893;27;45299;-80
2022/04/26 14:09:27;;;;;;;7.07;3.95;;;21.40;70.20;;;;;;5125475;27;45394;-80
2022/04/26 14:11:55;;;;;;;6.72;3.88;;;21.40;70.70;;;;;;5126525;27;45602;-80
2022/04/26 14:22:49;;;;;;;4.70;3.33;;;21.80;71.00;;;;;;5040019;28;45482;-81
2022/04/26 14:25:17;;;;;;;6.97;3.03;;;21.80;69.40;;;;;;5044328;28;46126;-80
2022/04/26 14:27:47;;;;;;;4.70;3.10;;;21.70;69.20;;;;;;5075841;27;45375;-81
2022/04/26 14:30:15;;;;;;;6.60;3.15;;;21.70;68.60;;;;;;5124324;27;45396;-81
2022/04/26 14:32:43;;;;;;;5.03;3.50;;;21.60;68.90;;;;;;5118271;27;45707;-81
2022/04/26 14:35:11;;;;;;;4.30;3.08;;;21.30;68.20;;;;;;5123160;27;45501;-80
2022/04/26 14:37:38;;;;;;;3.85;3.30;;;20.90;68.40;;;;;;5127088;27;45283;-81
2022/04/26 14:40:06;;;;;;;7.30;3.22;;;20.70;69.20;;;;;;5116275;27;45352;-80
2022/04/26 14:42:34;;;;;;;5.22;3.38;;;20.50;69.60;;;;;;5120773;27;48185;-80
2022/04/26 14:45:02;;;;;;;7.53;3.60;;;20.40;69.80;;;;;;5125174;27;45240;-80
2022/04/26 14:47:29;;;;;;;7.47;3.40;;;20.30;70.00;;;;;;5129716;27;45616;-80
2022/04/26 14:49:57;;;;;;;6.30;3.45;;;20.20;69.60;;;;;;5126212;27;45414;-80
2022/04/26 14:52:24;;;;;;;5.20;3.33;;;20.20;69.60;;;;;;5124260;27;45400;-81
2022/04/26 14:54:52;;;;;;;6.25;3.28;;;20.20;69.90;;;;;;5128534;27;45235;-80
2022/04/26 14:57:19;;;;;;;4.53;3.35;;;20.10;69.90;;;;;;5128587;27;45250;-81
2022/04/26 14:59:48;;;;;;;4.82;3.20;;;20.10;70.00;;;;;;5127736;27;45479;-80
2022/04/26 15:02:16;;;;;;;4.40;3.05;;;20.10;69.60;;;;;;5122967;27;48800;-80
2022/04/26 15:04:43;;;;;;;4.72;3.03;;;20.00;69.20;;;;;;5127770;27;46112;-81
2022/04/26 15:07:10;;;;;;;4.75;2.83;;;20.00;68.90;;;;;;5129610;27;45312;-81
2022/04/26 15:09:46;;;;;;;3.53;2.65;;;20.00;68.30;;;;;;5120178;27;45426;-81
2022/04/26 15:17:48;;;;;;;3.92;2.78;;;19.90;67.70;;;;;;5125572;27;45638;-82
2022/04/26 15:20:15;;;;;;;2.88;2.53;;;20.00;67.70;;;;;;5123795;27;45423;-82
2022/04/26 15:22:42;;;;;;;4.10;3.10;;;20.00;67.70;;;;;;5123327;27;47418;-82
2022/04/26 15:25:10;;;;;;;3.28;2.88;;;19.90;67.00;;;;;;5131721;27;45102;-82
2022/04/26 15:27:38;;;;;;;3.35;2.60;;;19.90;66.90;;;;;;5127779;27;45225;-80
2022/04/26 15:30:08;;;;;;;3.85;2.70;;;19.90;67.00;;;;;;5128247;27;45201;-80
2022/04/26 15:32:35;;;;;;;3.47;2.90;;;19.90;66.90;;;;;;5125639;27;47346;-80
2022/04/26 15:35:02;;;;;;;4.15;2.40;;;19.90;66.40;;;;;;5128493;27;45215;-80
2022/04/26 15:37:29;;;;;;;3.65;2.60;;;19.90;66.60;;;;;;5131280;27;45881;-81
2022/04/26 15:39:56;;;;;;;3.40;2.55;;;19.90;66.30;;;;;;5131428;27;45354;-80
2022/04/26 15:42:23;;;;;;;4.95;2.80;;;19.90;66.10;;;;;;5126918;27;46845;-80
2022/04/26 15:44:51;;;;;;;3.22;2.60;;;19.90;65.90;;;;;;5120411;27;45160;-80
2022/04/26 15:47:19;;;;;;;3.45;2.75;;;19.80;65.60;;;;;;5129570;27;45257;-80
2022/04/26 15:49:46;;;;;;;4.35;2.70;;;19.90;65.50;;;;;;5131426;27;45344;-80
2022/04/26 15:52:14;;;;;;;3.83;2.40;;;19.80;65.70;;;;;;5127736;27;47245;-80
2022/04/26 15:54:43;;;;;;;4.13;2.40;;;19.80;66.30;;;;;;5131695;27;45161;-79
2022/04/26 15:57:11;;;;;;;3.83;2.55;;;19.80;66.00;;;;;;5122120;27;45782;-80
2022/04/26 15:59:39;;;;;;;3.40;2.38;;;19.80;65.80;;;;;;5117395;27;45994;-80
2022/04/26 16:02:07;;;;;;;3.13;2.40;;;19.80;66.30;;;;;;5119706;27;47898;-79
2022/04/26 16:04:36;;;;;;;2.80;1.92;;;19.80;65.60;;;;;;5127935;27;45205;-79
2022/04/26 16:07:03;;;;;;;5.50;2.58;;;19.80;65.10;;;;;;5120332;27;45286;-80
2022/04/26 16:20:31;;;;;;;3.28;2.22;;;19.70;65.10;;;;;;5119831;27;45276;-79
2022/04/26 16:22:59;;;;;;;3.28;2.17;;;19.70;65.00;;;;;;5126090;27;46321;-80
2022/04/26 16:25:27;;;;;;;2.05;1.85;;;19.70;64.50;;;;;;5122902;27;45365;-80
2022/04/26 16:27:54;;;;;;;3.67;2.03;;;19.70;64.40;;;;;;5129265;27;45165;-80
2022/04/26 16:30:21;;;;;;;2.35;1.88;;;19.70;63.90;;;;;;5123632;27;45515;-80
2022/04/26 16:32:48;;;;;;;3.05;1.83;;;19.60;64.30;;;;;;5125757;27;46421;-79
2022/04/26 16:35:15;;;;;;;2.85;2.03;;;19.60;64.30;;;;;;5125306;27;45616;-80
2022/04/26 16:37:44;;;;;;;2.63;1.90;;;19.60;63.30;;;;;;5122931;27;45360;-80
2022/04/26 16:40:12;;;;;;;3.45;2.00;;;19.60;63.50;;;;;;5118722;27;45388;-80
2022/04/26 16:42:39;;;;;;;4.05;1.70;;;19.60;63.30;;;;;;5121797;27;47189;-80
2022/04/26 16:45:07;;;;;;;3.40;2.15;;;19.60;63.40;;;;;;5124024;27;45278;-79
2022/04/26 16:47:33;;;;;;;3.47;2.08;;;19.60;63.00;;;;;;5117177;27;45278;-79
2022/04/26 16:50:00;;;;;;;2.75;1.83;;;19.60;63.10;;;;;;5120346;27;45302;-80
2022/04/26 16:52:27;;;;;;;2.42;1.90;;;19.60;65.00;;;;;;5121194;27;48020;-80
2022/04/26 16:54:55;;;;;;;2.13;1.73;;;19.60;64.60;;;;;;5125479;27;45341;-80
2022/04/26 16:57:23;;;;;;;3.53;2.00;;;19.60;64.10;;;;;;5121683;27;45274;-79
2022/04/26 16:59:49;;;;;;;1.60;1.50;;;19.60;64.80;;;;;;5115801;27;45683;-80
2022/04/26 17:02:16;;;;;;;2.65;1.50;;;19.60;64.90;;;;;;5120538;27;47297;-79
2022/04/26 17:04:43;;;;;;;2.45;1.88;;;19.60;64.40;;;;;;5128424;27;45298;-79
2022/04/26 17:07:10;;;;;;;2.42;1.80;;;19.60;64.10;;;;;;5128783;27;45154;-79
2022/04/26 17:09:37;;;;;;;5.22;1.83;;;19.60;63.40;;;;;;5142011;27;45286;-79
2022/04/26 17:12:07;;;;;;;2.60;2.03;;;19.50;63.20;;;;;;5127390;27;47395;-80
2022/04/26 17:14:35;;;;;;;2.95;1.90;;;19.60;62.60;;;;;;5125907;27;45854;-79
2022/04/26 17:17:02;;;;;;;2.55;1.63;;;19.60;62.60;;;;;;5129629;27;45297;-80